KMFV/MFV METAR and TAF weather

Enter ICAO airport designator
Station Type Date Time Source
KMFV METAR 2018/12/18 18:55 UTC NOAA

KMFV 181855Z AUTO 31014G21KT 10SM CLR 07/M02 A3012 RMK AO2 T00681025


Station Type Date Time Source
KMFV Decoded METAR 2018/12/18 18:55 UTC NOAA

Melfa / Accomack Airport, VA, United States (KMFV) 37-39N 075-46W
Dec 18, 2018 - 01:55 PM EST / 2018.12.18 1855 UTC
Wind: from the NW (310 degrees) at 16 MPH (14 KT) gusting to 24 MPH (21 KT):0
Visibility: 10 mile(s):0
Sky conditions: clear
Temperature: 44.2 F (6.8 C)
Dew Point: 27.5 F (-2.5 C)
Relative Humidity: 51%
Pressure (altimeter): 30.12 in. Hg (1019 hPa)
ob: KMFV 181855Z AUTO 31014G21KT 10SM CLR 07/M02 A3012 RMK AO2 T00681025
cycle: 19

Station Type Date Time Source
KMFV TAF UTC NOAA

Error!


Example: see airport list